sensor_id;sensor_type;location;lat;lon;timestamp;P1;durP1;ratioP1;P2;durP2;ratioP2
48524;SDS011;34316;51.514;-0.178;2024-01-30T00:00:12;9.90;;;6.13;;
48524;SDS011;34316;51.514;-0.178;2024-01-30T00:02:14;8.32;;;5.63;;
48524;SDS011;34316;51.514;-0.178;2024-01-30T00:04:16;7.50;;;5.63;;
48524;SDS011;34316;51.514;-0.178;2024-01-30T00:06:18;8.63;;;5.45;;
48524;SDS011;34316;51.514;-0.178;2024-01-30T00:08:22;7.78;;;5.78;;
48524;SDS011;34316;51.514;-0.178;2024-01-30T00:10:24;8.32;;;5.80;;
48524;SDS011;34316;51.514;-0.178;2024-01-30T00:12:26;9.73;;;5.65;;
48524;SDS011;34316;51.514;-0.178;2024-01-30T00:14:29;8.82;;;5.90;;
48524;SDS011;34316;51.514;-0.178;2024-01-30T00:16:33;9.32;;;5.65;;
48524;SDS011;34316;51.514;-0.178;2024-01-30T00:18:35;8.93;;;5.60;;
48524;SDS011;34316;51.514;-0.178;2024-01-30T00:20:37;7.72;;;5.38;;
48524;SDS011;34316;51.514;-0.178;2024-01-30T00:22:39;7.97;;;5.55;;
48524;SDS011;34316;51.514;-0.178;2024-01-30T00:24:41;7.82;;;5.72;;
48524;SDS011;34316;51.514;-0.178;2024-01-30T00:26:43;7.68;;;5.78;;
48524;SDS011;34316;51.514;-0.178;2024-01-30T00:28:45;7.10;;;5.20;;
48524;SDS011;34316;51.514;-0.178;2024-01-30T00:30:47;8.45;;;5.55;;
48524;SDS011;34316;51.514;-0.178;2024-01-30T00:32:50;8.40;;;5.45;;
48524;SDS011;34316;51.514;-0.178;2024-01-30T00:34:52;8.55;;;5.50;;
48524;SDS011;34316;51.514;-0.178;2024-01-30T00:36:54;8.38;;;5.35;;
48524;SDS011;34316;51.514;-0.178;2024-01-30T00:38:56;7.82;;;5.25;;
48524;SDS011;34316;51.514;-0.178;2024-01-30T00:40:58;9.05;;;5.93;;
48524;SDS011;34316;51.514;-0.178;2024-01-30T00:43:02;6.53;;;4.85;;
48524;SDS011;34316;51.514;-0.178;2024-01-30T00:45:04;8.27;;;5.03;;
48524;SDS011;34316;51.514;-0.178;2024-01-30T00:47:06;8.55;;;5.55;;
48524;SDS011;34316;51.514;-0.178;2024-01-30T00:49:08;7.30;;;5.15;;
48524;SDS011;34316;51.514;-0.178;2024-01-30T00:51:10;7.50;;;5.32;;
48524;SDS011;34316;51.514;-0.178;2024-01-30T00:53:14;9.30;;;5.78;;
48524;SDS011;34316;51.514;-0.178;2024-01-30T00:55:17;7.53;;;5.20;;
48524;SDS011;34316;51.514;-0.178;2024-01-30T00:57:21;9.82;;;5.88;;
48524;SDS011;34316;51.514;-0.178;2024-01-30T00:59:24;7.37;;;5.40;;
48524;SDS011;34316;51.514;-0.178;2024-01-30T01:01:27;8.63;;;6.03;;
48524;SDS011;34316;51.514;-0.178;2024-01-30T01:03:31;7.80;;;6.10;;
48524;SDS011;34316;51.514;-0.178;2024-01-30T01:05:33;7.75;;;5.35;;
48524;SDS011;34316;51.514;-0.178;2024-01-30T01:07:34;8.15;;;5.70;;
48524;SDS011;34316;51.514;-0.178;2024-01-30T01:09:39;10.40;;;6.10;;
48524;SDS011;34316;51.514;-0.178;2024-01-30T01:11:41;8.30;;;6.10;;
48524;SDS011;34316;51.514;-0.178;2024-01-30T01:13:43;8.02;;;6.00;;
48524;SDS011;34316;51.514;-0.178;2024-01-30T01:15:46;7.75;;;5.72;;
48524;SDS011;34316;51.514;-0.178;2024-01-30T01:17:48;7.85;;;5.97;;
48524;SDS011;34316;51.514;-0.178;2024-01-30T01:19:50;8.52;;;6.22;;
48524;SDS011;34316;51.514;-0.178;2024-01-30T01:21:52;12.75;;;6.13;;
48524;SDS011;34316;51.514;-0.178;2024-01-30T01:23:54;9.55;;;6.03;;
48524;SDS011;34316;51.514;-0.178;2024-01-30T01:25:56;7.03;;;5.57;;
48524;SDS011;34316;51.514;-0.178;2024-01-30T01:28:02;8.43;;;5.93;;
48524;SDS011;34316;51.514;-0.178;2024-01-30T01:32:10;7.68;;;5.43;;
48524;SDS011;34316;51.514;-0.178;2024-01-30T01:34:13;8.18;;;5.75;;
48524;SDS011;34316;51.514;-0.178;2024-01-30T01:36:15;7.85;;;5.88;;
48524;SDS011;34316;51.514;-0.178;2024-01-30T01:38:17;7.65;;;5.60;;
48524;SDS011;34316;51.514;-0.178;2024-01-30T01:40:18;8.27;;;5.80;;
48524;SDS011;34316;51.514;-0.178;2024-01-30T01:42:20;7.38;;;5.80;;
48524;SDS011;34316;51.514;-0.178;2024-01-30T01:44:25;8.15;;;5.93;;
48524;SDS011;34316;51.514;-0.178;2024-01-30T01:46:30;8.18;;;5.78;;
48524;SDS011;34316;51.514;-0.178;2024-01-30T01:48:32;8.45;;;6.13;;
48524;SDS011;34316;51.514;-0.178;2024-01-30T01:50:34;8.35;;;5.95;;
48524;SDS011;34316;51.514;-0.178;2024-01-30T01:52:37;8.13;;;5.85;;
48524;SDS011;34316;51.514;-0.178;2024-01-30T01:54:40;6.80;;;5.30;;
48524;SDS011;34316;51.514;-0.178;2024-01-30T01:56:43;6.93;;;5.40;;
48524;SDS011;34316;51.514;-0.178;2024-01-30T01:58:45;7.53;;;5.80;;
48524;SDS011;34316;51.514;-0.178;2024-01-30T02:00:48;8.15;;;5.57;;
48524;SDS011;34316;51.514;-0.178;2024-01-30T02:02:50;7.97;;;5.60;;
48524;SDS011;34316;51.514;-0.178;2024-01-30T02:04:52;8.27;;;5.47;;
48524;SDS011;34316;51.514;-0.178;2024-01-30T02:06:54;7.20;;;4.97;;
48524;SDS011;34316;51.514;-0.178;2024-01-30T02:08:56;8.65;;;5.70;;
48524;SDS011;34316;51.514;-0.178;2024-01-30T02:10:59;8.63;;;5.50;;
48524;SDS011;34316;51.514;-0.178;2024-01-30T02:13:01;7.85;;;5.55;;
48524;SDS011;34316;51.514;-0.178;2024-01-30T02:15:03;6.97;;;5.13;;
48524;SDS011;34316;51.514;-0.178;2024-01-30T02:17:06;7.47;;;5.60;;
48524;SDS011;34316;51.514;-0.178;2024-01-30T02:19:08;7.63;;;5.68;;
48524;SDS011;34316;51.514;-0.178;2024-01-30T02:21:11;7.88;;;5.32;;
48524;SDS011;34316;51.514;-0.178;2024-01-30T02:23:13;6.68;;;4.85;;
48524;SDS011;34316;51.514;-0.178;2024-01-30T02:25:17;7.03;;;5.60;;
48524;SDS011;34316;51.514;-0.178;2024-01-30T02:27:19;6.53;;;4.90;;
48524;SDS011;34316;51.514;-0.178;2024-01-30T02:29:22;9.07;;;6.25;;
48524;SDS011;34316;51.514;-0.178;2024-01-30T02:31:25;7.40;;;5.13;;
48524;SDS011;34316;51.514;-0.178;2024-01-30T02:33:27;8.13;;;5.82;;
48524;SDS011;34316;51.514;-0.178;2024-01-30T02:35:29;7.60;;;5.13;;
48524;SDS011;34316;51.514;-0.178;2024-01-30T02:37:30;11.13;;;5.30;;
48524;SDS011;34316;51.514;-0.178;2024-01-30T02:39:32;7.20;;;4.78;;
48524;SDS011;34316;51.514;-0.178;2024-01-30T02:41:34;6.88;;;5.10;;
48524;SDS011;34316;51.514;-0.178;2024-01-30T02:43:36;8.52;;;5.13;;
48524;SDS011;34316;51.514;-0.178;2024-01-30T02:45:38;8.68;;;5.03;;
48524;SDS011;34316;51.514;-0.178;2024-01-30T02:47:41;8.55;;;5.13;;
48524;SDS011;34316;51.514;-0.178;2024-01-30T02:49:43;6.50;;;4.57;;
48524;SDS011;34316;51.514;-0.178;2024-01-30T02:51:45;6.50;;;4.53;;
48524;SDS011;34316;51.514;-0.178;2024-01-30T02:53:47;7.25;;;5.07;;
48524;SDS011;34316;51.514;-0.178;2024-01-30T02:55:50;8.67;;;4.87;;
48524;SDS011;34316;51.514;-0.178;2024-01-30T02:57:51;8.20;;;5.43;;
48524;SDS011;34316;51.514;-0.178;2024-01-30T02:59:54;6.22;;;4.47;;
48524;SDS011;34316;51.514;-0.178;2024-01-30T03:01:56;7.32;;;4.50;;
48524;SDS011;34316;51.514;-0.178;2024-01-30T03:03:58;6.28;;;4.70;;
48524;SDS011;34316;51.514;-0.178;2024-01-30T03:06:00;6.13;;;4.80;;
48524;SDS011;34316;51.514;-0.178;2024-01-30T03:08:04;7.32;;;4.97;;
48524;SDS011;34316;51.514;-0.178;2024-01-30T03:10:06;6.68;;;4.10;;
48524;SDS011;34316;51.514;-0.178;2024-01-30T03:12:10;5.85;;;4.40;;
48524;SDS011;34316;51.514;-0.178;2024-01-30T03:14:13;7.30;;;5.13;;
48524;SDS011;34316;51.514;-0.178;2024-01-30T03:16:14;6.65;;;4.90;;
48524;SDS011;34316;51.514;-0.178;2024-01-30T03:18:16;6.30;;;4.75;;
48524;SDS011;34316;51.514;-0.178;2024-01-30T03:20:19;7.55;;;5.25;;
48524;SDS011;34316;51.514;-0.178;2024-01-30T03:22:21;7.60;;;4.60;;
48524;SDS011;34316;51.514;-0.178;2024-01-30T03:24:24;6.90;;;4.90;;
48524;SDS011;34316;51.514;-0.178;2024-01-30T03:26:25;7.15;;;4.88;;
48524;SDS011;34316;51.514;-0.178;2024-01-30T03:28:27;7.28;;;4.43;;
48524;SDS011;34316;51.514;-0.178;2024-01-30T03:30:29;7.15;;;4.50;;
48524;SDS011;34316;51.514;-0.178;2024-01-30T03:32:31;7.38;;;4.50;;
48524;SDS011;34316;51.514;-0.178;2024-01-30T03:34:34;6.93;;;4.13;;
48524;SDS011;34316;51.514;-0.178;2024-01-30T03:36:36;7.38;;;4.90;;
48524;SDS011;34316;51.514;-0.178;2024-01-30T03:38:38;6.90;;;4.75;;
48524;SDS011;34316;51.514;-0.178;2024-01-30T03:40:39;8.15;;;4.60;;
48524;SDS011;34316;51.514;-0.178;2024-01-30T03:42:43;6.20;;;4.30;;
48524;SDS011;34316;51.514;-0.178;2024-01-30T03:44:45;5.80;;;3.80;;
48524;SDS011;34316;51.514;-0.178;2024-01-30T03:46:47;6.45;;;3.92;;
48524;SDS011;34316;51.514;-0.178;2024-01-30T03:48:50;6.10;;;4.53;;
48524;SDS011;34316;51.514;-0.178;2024-01-30T03:50:52;6.07;;;3.83;;
48524;SDS011;34316;51.514;-0.178;2024-01-30T03:52:54;7.25;;;4.68;;
48524;SDS011;34316;51.514;-0.178;2024-01-30T03:54:56;5.03;;;3.75;;
48524;SDS011;34316;51.514;-0.178;2024-01-30T03:56:58;6.78;;;4.00;;
48524;SDS011;34316;51.514;-0.178;2024-01-30T03:59:00;6.28;;;3.83;;
48524;SDS011;34316;51.514;-0.178;2024-01-30T04:01:04;5.35;;;3.67;;
48524;SDS011;34316;51.514;-0.178;2024-01-30T04:03:07;6.83;;;4.07;;
48524;SDS011;34316;51.514;-0.178;2024-01-30T04:05:10;4.93;;;3.42;;
48524;SDS011;34316;51.514;-0.178;2024-01-30T04:07:12;6.15;;;3.90;;
48524;SDS011;34316;51.514;-0.178;2024-01-30T04:09:14;5.57;;;3.72;;
48524;SDS011;34316;51.514;-0.178;2024-01-30T04:11:18;6.88;;;3.65;;
48524;SDS011;34316;51.514;-0.178;2024-01-30T04:13:21;5.30;;;4.05;;
48524;SDS011;34316;51.514;-0.178;2024-01-30T04:15:22;6.43;;;4.63;;
48524;SDS011;34316;51.514;-0.178;2024-01-30T04:17:24;8.00;;;5.35;;
48524;SDS011;34316;51.514;-0.178;2024-01-30T04:19:26;7.45;;;4.45;;
48524;SDS011;34316;51.514;-0.178;2024-01-30T04:21:28;9.75;;;4.35;;
48524;SDS011;34316;51.514;-0.178;2024-01-30T04:23:30;6.43;;;4.20;;
48524;SDS011;34316;51.514;-0.178;2024-01-30T04:25:32;7.78;;;4.53;;
48524;SDS011;34316;51.514;-0.178;2024-01-30T04:27:34;5.13;;;3.65;;
48524;SDS011;34316;51.514;-0.178;2024-01-30T04:29:36;5.95;;;4.32;;
48524;SDS011;34316;51.514;-0.178;2024-01-30T04:31:37;6.63;;;4.43;;
48524;SDS011;34316;51.514;-0.178;2024-01-30T04:33:41;6.85;;;4.20;;
48524;SDS011;34316;51.514;-0.178;2024-01-30T04:35:45;8.23;;;4.05;;
48524;SDS011;34316;51.514;-0.178;2024-01-30T04:37:47;8.70;;;4.13;;
48524;SDS011;34316;51.514;-0.178;2024-01-30T04:39:50;8.13;;;3.92;;
48524;SDS011;34316;51.514;-0.178;2024-01-30T04:41:53;7.22;;;4.35;;
48524;SDS011;34316;51.514;-0.178;2024-01-30T04:43:55;8.02;;;4.13;;
48524;SDS011;34316;51.514;-0.178;2024-01-30T04:45:58;6.32;;;4.28;;
48524;SDS011;34316;51.514;-0.178;2024-01-30T04:48:00;6.20;;;3.92;;
48524;SDS011;34316;51.514;-0.178;2024-01-30T04:50:03;9.93;;;4.03;;
48524;SDS011;34316;51.514;-0.178;2024-01-30T04:52:07;12.10;;;4.50;;
48524;SDS011;34316;51.514;-0.178;2024-01-30T04:54:09;5.68;;;4.13;;
48524;SDS011;34316;51.514;-0.178;2024-01-30T04:56:11;7.70;;;4.65;;
48524;SDS011;34316;51.514;-0.178;2024-01-30T04:58:13;8.18;;;4.47;;
48524;SDS011;34316;51.514;-0.178;2024-01-30T05:00:16;5.95;;;3.90;;
48524;SDS011;34316;51.514;-0.178;2024-01-30T05:02:19;8.05;;;4.50;;
48524;SDS011;34316;51.514;-0.178;2024-01-30T05:04:20;6.43;;;4.50;;
48524;SDS011;34316;51.514;-0.178;2024-01-30T05:06:24;12.13;;;5.10;;
48524;SDS011;34316;51.514;-0.178;2024-01-30T05:10:33;6.30;;;4.28;;
48524;SDS011;34316;51.514;-0.178;2024-01-30T05:12:35;8.38;;;4.50;;
48524;SDS011;34316;51.514;-0.178;2024-01-30T05:14:37;12.23;;;5.22;;
48524;SDS011;34316;51.514;-0.178;2024-01-30T05:16:39;11.15;;;5.38;;
48524;SDS011;34316;51.514;-0.178;2024-01-30T05:18:41;8.13;;;5.30;;
48524;SDS011;34316;51.514;-0.178;2024-01-30T05:20:43;7.32;;;4.85;;
48524;SDS011;34316;51.514;-0.178;2024-01-30T05:22:45;11.13;;;5.05;;
48524;SDS011;34316;51.514;-0.178;2024-01-30T05:24:49;10.25;;;4.90;;
48524;SDS011;34316;51.514;-0.178;2024-01-30T05:26:51;9.05;;;5.63;;
48524;SDS011;34316;51.514;-0.178;2024-01-30T05:28:56;11.60;;;6.88;;
48524;SDS011;34316;51.514;-0.178;2024-01-30T05:31:01;22.00;;;10.77;;
48524;SDS011;34316;51.514;-0.178;2024-01-30T05:33:03;17.95;;;7.88;;
48524;SDS011;34316;51.514;-0.178;2024-01-30T05:35:06;12.93;;;5.72;;
48524;SDS011;34316;51.514;-0.178;2024-01-30T05:37:09;13.65;;;6.13;;
48524;SDS011;34316;51.514;-0.178;2024-01-30T05:39:16;8.85;;;5.38;;
48524;SDS011;34316;51.514;-0.178;2024-01-30T05:41:18;10.15;;;5.20;;
48524;SDS011;34316;51.514;-0.178;2024-01-30T05:43:22;10.15;;;5.93;;
48524;SDS011;34316;51.514;-0.178;2024-01-30T05:45:27;11.57;;;5.93;;
48524;SDS011;34316;51.514;-0.178;2024-01-30T05:47:29;9.48;;;5.60;;
48524;SDS011;34316;51.514;-0.178;2024-01-30T05:49:31;10.40;;;5.47;;
48524;SDS011;34316;51.514;-0.178;2024-01-30T05:51:33;12.85;;;6.20;;
48524;SDS011;34316;51.514;-0.178;2024-01-30T05:53:36;11.30;;;6.03;;
48524;SDS011;34316;51.514;-0.178;2024-01-30T05:55:48;11.38;;;5.88;;
48524;SDS011;34316;51.514;-0.178;2024-01-30T05:57:50;12.02;;;5.88;;
48524;SDS011;34316;51.514;-0.178;2024-01-30T05:59:53;8.35;;;4.93;;
48524;SDS011;34316;51.514;-0.178;2024-01-30T06:01:56;11.00;;;6.00;;
48524;SDS011;34316;51.514;-0.178;2024-01-30T06:04:01;9.20;;;5.88;;
48524;SDS011;34316;51.514;-0.178;2024-01-30T06:06:07;14.02;;;6.28;;
48524;SDS011;34316;51.514;-0.178;2024-01-30T06:08:09;17.17;;;6.18;;
48524;SDS011;34316;51.514;-0.178;2024-01-30T06:10:12;11.50;;;5.80;;
48524;SDS011;34316;51.514;-0.178;2024-01-30T06:12:14;13.70;;;5.80;;
48524;SDS011;34316;51.514;-0.178;2024-01-30T06:14:16;10.43;;;5.72;;
48524;SDS011;34316;51.514;-0.178;2024-01-30T06:16:20;11.63;;;5.05;;
48524;SDS011;34316;51.514;-0.178;2024-01-30T06:18:24;16.80;;;5.15;;
48524;SDS011;34316;51.514;-0.178;2024-01-30T06:20:27;7.97;;;5.20;;
48524;SDS011;34316;51.514;-0.178;2024-01-30T06:22:30;10.32;;;5.50;;
48524;SDS011;34316;51.514;-0.178;2024-01-30T06:24:31;15.93;;;5.30;;
48524;SDS011;34316;51.514;-0.178;2024-01-30T06:26:35;11.75;;;4.95;;
48524;SDS011;34316;51.514;-0.178;2024-01-30T06:28:39;12.18;;;5.40;;
48524;SDS011;34316;51.514;-0.178;2024-01-30T06:30:42;16.00;;;5.57;;
48524;SDS011;34316;51.514;-0.178;2024-01-30T06:32:45;9.73;;;4.95;;
48524;SDS011;34316;51.514;-0.178;2024-01-30T06:34:50;10.63;;;4.43;;
48524;SDS011;34316;51.514;-0.178;2024-01-30T06:36:52;11.48;;;5.13;;
48524;SDS011;34316;51.514;-0.178;2024-01-30T06:38:54;15.95;;;5.60;;
48524;SDS011;34316;51.514;-0.178;2024-01-30T06:40:58;15.93;;;5.85;;
48524;SDS011;34316;51.514;-0.178;2024-01-30T06:43:00;11.90;;;6.30;;
48524;SDS011;34316;51.514;-0.178;2024-01-30T06:45:04;11.23;;;5.47;;
48524;SDS011;34316;51.514;-0.178;2024-01-30T06:47:06;14.27;;;5.45;;
48524;SDS011;34316;51.514;-0.178;2024-01-30T06:49:11;11.50;;;4.97;;
48524;SDS011;34316;51.514;-0.178;2024-01-30T06:51:13;9.32;;;5.55;;
48524;SDS011;34316;51.514;-0.178;2024-01-30T06:53:18;13.30;;;6.35;;
48524;SDS011;34316;51.514;-0.178;2024-01-30T06:55:20;9.07;;;4.50;;
48524;SDS011;34316;51.514;-0.178;2024-01-30T06:57:24;10.18;;;5.32;;
48524;SDS011;34316;51.514;-0.178;2024-01-30T06:59:27;12.65;;;6.25;;
48524;SDS011;34316;51.514;-0.178;2024-01-30T07:01:30;12.40;;;7.03;;
48524;SDS011;34316;51.514;-0.178;2024-01-30T07:03:32;9.88;;;6.10;;
48524;SDS011;34316;51.514;-0.178;2024-01-30T07:05:34;6.80;;;4.80;;
48524;SDS011;34316;51.514;-0.178;2024-01-30T07:07:37;8.93;;;5.28;;
48524;SDS011;34316;51.514;-0.178;2024-01-30T07:09:41;11.50;;;5.80;;
48524;SDS011;34316;51.514;-0.178;2024-01-30T07:11:45;8.88;;;5.18;;
48524;SDS011;34316;51.514;-0.178;2024-01-30T07:13:48;8.73;;;4.78;;
48524;SDS011;34316;51.514;-0.178;2024-01-30T07:15:50;6.32;;;4.63;;
48524;SDS011;34316;51.514;-0.178;2024-01-30T07:17:52;8.40;;;4.20;;
48524;SDS011;34316;51.514;-0.178;2024-01-30T07:19:55;7.72;;;4.57;;
48524;SDS011;34316;51.514;-0.178;2024-01-30T07:21:57;6.68;;;4.50;;
48524;SDS011;34316;51.514;-0.178;2024-01-30T07:23:59;6.60;;;4.32;;
48524;SDS011;34316;51.514;-0.178;2024-01-30T07:26:01;5.63;;;4.47;;
48524;SDS011;34316;51.514;-0.178;2024-01-30T07:28:04;17.83;;;5.03;;
48524;SDS011;34316;51.514;-0.178;2024-01-30T07:30:07;9.57;;;4.30;;
48524;SDS011;34316;51.514;-0.178;2024-01-30T07:32:10;9.95;;;3.47;;
48524;SDS011;34316;51.514;-0.178;2024-01-30T07:34:12;6.63;;;3.30;;
48524;SDS011;34316;51.514;-0.178;2024-01-30T07:36:17;7.50;;;3.60;;
48524;SDS011;34316;51.514;-0.178;2024-01-30T07:38:20;7.70;;;3.47;;
48524;SDS011;34316;51.514;-0.178;2024-01-30T07:40:22;5.38;;;3.17;;
48524;SDS011;34316;51.514;-0.178;2024-01-30T07:42:24;9.80;;;3.55;;
48524;SDS011;34316;51.514;-0.178;2024-01-30T07:44:26;6.75;;;3.33;;
48524;SDS011;34316;51.514;-0.178;2024-01-30T07:46:28;4.88;;;3.42;;
48524;SDS011;34316;51.514;-0.178;2024-01-30T07:48:30;6.47;;;3.40;;
48524;SDS011;34316;51.514;-0.178;2024-01-30T07:50:35;5.20;;;3.72;;
48524;SDS011;34316;51.514;-0.178;2024-01-30T07:52:40;5.05;;;3.47;;
48524;SDS011;34316;51.514;-0.178;2024-01-30T07:54:42;6.90;;;3.83;;
48524;SDS011;34316;51.514;-0.178;2024-01-30T07:56:44;5.38;;;4.10;;
48524;SDS011;34316;51.514;-0.178;2024-01-30T07:58:46;7.75;;;3.72;;
48524;SDS011;34316;51.514;-0.178;2024-01-30T08:00:49;6.65;;;3.97;;
48524;SDS011;34316;51.514;-0.178;2024-01-30T08:02:53;8.63;;;4.53;;
48524;SDS011;34316;51.514;-0.178;2024-01-30T08:04:56;12.05;;;4.70;;
48524;SDS011;34316;51.514;-0.178;2024-01-30T08:06:59;5.43;;;4.25;;
48524;SDS011;34316;51.514;-0.178;2024-01-30T08:09:01;5.38;;;3.80;;
48524;SDS011;34316;51.514;-0.178;2024-01-30T08:13:06;9.15;;;4.13;;
48524;SDS011;34316;51.514;-0.178;2024-01-30T08:15:11;8.90;;;4.15;;
48524;SDS011;34316;51.514;-0.178;2024-01-30T08:19:16;8.00;;;4.15;;
48524;SDS011;34316;51.514;-0.178;2024-01-30T08:21:18;8.57;;;4.25;;
48524;SDS011;34316;51.514;-0.178;2024-01-30T08:23:21;6.55;;;4.03;;
48524;SDS011;34316;51.514;-0.178;2024-01-30T08:25:23;8.00;;;4.00;;
48524;SDS011;34316;51.514;-0.178;2024-01-30T08:27:27;6.85;;;4.45;;
48524;SDS011;34316;51.514;-0.178;2024-01-30T08:29:29;8.90;;;4.32;;
48524;SDS011;34316;51.514;-0.178;2024-01-30T08:31:32;11.60;;;5.00;;
48524;SDS011;34316;51.514;-0.178;2024-01-30T08:33:37;9.15;;;5.70;;
48524;SDS011;34316;51.514;-0.178;2024-01-30T08:35:41;16.83;;;5.45;;
48524;SDS011;34316;51.514;-0.178;2024-01-30T08:37:47;10.05;;;4.20;;
48524;SDS011;34316;51.514;-0.178;2024-01-30T08:39:49;6.32;;;3.50;;
48524;SDS011;34316;51.514;-0.178;2024-01-30T08:41:53;10.77;;;4.47;;
48524;SDS011;34316;51.514;-0.178;2024-01-30T08:43:56;8.50;;;4.35;;
48524;SDS011;34316;51.514;-0.178;2024-01-30T08:46:01;9.32;;;4.63;;
48524;SDS011;34316;51.514;-0.178;2024-01-30T08:48:04;6.70;;;4.45;;
48524;SDS011;34316;51.514;-0.178;2024-01-30T08:50:07;11.23;;;5.28;;
48524;SDS011;34316;51.514;-0.178;2024-01-30T08:52:12;10.18;;;5.15;;
48524;SDS011;34316;51.514;-0.178;2024-01-30T08:54:15;9.30;;;5.95;;
48524;SDS011;34316;51.514;-0.178;2024-01-30T08:56:21;12.82;;;6.55;;
48524;SDS011;34316;51.514;-0.178;2024-01-30T09:00:25;11.32;;;5.57;;
48524;SDS011;34316;51.514;-0.178;2024-01-30T09:02:27;15.75;;;8.98;;
48524;SDS011;34316;51.514;-0.178;2024-01-30T09:04:29;8.18;;;6.05;;
48524;SDS011;34316;51.514;-0.178;2024-01-30T09:06:31;10.43;;;5.95;;
48524;SDS011;34316;51.514;-0.178;2024-01-30T09:08:34;17.70;;;7.13;;
48524;SDS011;34316;51.514;-0.178;2024-01-30T09:10:38;11.75;;;6.03;;
48524;SDS011;34316;51.514;-0.178;2024-01-30T09:12:40;8.73;;;5.95;;
48524;SDS011;34316;51.514;-0.178;2024-01-30T09:14:42;7.75;;;5.53;;
48524;SDS011;34316;51.514;-0.178;2024-01-30T09:16:44;11.70;;;5.97;;
48524;SDS011;34316;51.514;-0.178;2024-01-30T09:18:47;11.73;;;5.72;;
48524;SDS011;34316;51.514;-0.178;2024-01-30T09:20:49;7.03;;;5.05;;
48524;SDS011;34316;51.514;-0.178;2024-01-30T09:22:51;9.93;;;5.85;;
48524;SDS011;34316;51.514;-0.178;2024-01-30T09:24:53;10.18;;;5.60;;
48524;SDS011;34316;51.514;-0.178;2024-01-30T09:26:58;11.52;;;5.78;;
48524;SDS011;34316;51.514;-0.178;2024-01-30T09:29:00;6.85;;;5.10;;
48524;SDS011;34316;51.514;-0.178;2024-01-30T09:31:01;15.25;;;5.22;;
48524;SDS011;34316;51.514;-0.178;2024-01-30T09:33:06;6.85;;;4.72;;
48524;SDS011;34316;51.514;-0.178;2024-01-30T09:35:08;6.93;;;4.43;;
48524;SDS011;34316;51.514;-0.178;2024-01-30T09:37:11;6.68;;;4.70;;
48524;SDS011;34316;51.514;-0.178;2024-01-30T09:39:18;7.38;;;4.30;;
48524;SDS011;34316;51.514;-0.178;2024-01-30T09:41:22;7.03;;;5.00;;
48524;SDS011;34316;51.514;-0.178;2024-01-30T09:45:27;9.07;;;5.05;;
48524;SDS011;34316;51.514;-0.178;2024-01-30T09:47:36;8.07;;;4.45;;
48524;SDS011;34316;51.514;-0.178;2024-01-30T09:49:44;10.00;;;5.38;;
48524;SDS011;34316;51.514;-0.178;2024-01-30T09:51:46;7.00;;;4.95;;
48524;SDS011;34316;51.514;-0.178;2024-01-30T09:53:49;9.75;;;4.90;;
48524;SDS011;34316;51.514;-0.178;2024-01-30T09:55:51;9.30;;;4.90;;
48524;SDS011;34316;51.514;-0.178;2024-01-30T09:57:54;7.03;;;4.95;;
48524;SDS011;34316;51.514;-0.178;2024-01-30T09:59:56;8.48;;;5.35;;
48524;SDS011;34316;51.514;-0.178;2024-01-30T10:01:59;8.20;;;4.95;;
48524;SDS011;34316;51.514;-0.178;2024-01-30T10:04:02;7.33;;;4.73;;
48524;SDS011;34316;51.514;-0.178;2024-01-30T10:06:05;10.50;;;5.15;;
48524;SDS011;34316;51.514;-0.178;2024-01-30T10:08:08;8.55;;;4.78;;
48524;SDS011;34316;51.514;-0.178;2024-01-30T10:10:10;7.05;;;4.45;;
48524;SDS011;34316;51.514;-0.178;2024-01-30T10:12:12;7.13;;;4.68;;
48524;SDS011;34316;51.514;-0.178;2024-01-30T10:14:15;6.15;;;4.28;;
48524;SDS011;34316;51.514;-0.178;2024-01-30T10:16:17;9.18;;;4.47;;
48524;SDS011;34316;51.514;-0.178;2024-01-30T10:18:19;6.47;;;4.38;;
48524;SDS011;34316;51.514;-0.178;2024-01-30T10:20:21;7.95;;;6.15;;
48524;SDS011;34316;51.514;-0.178;2024-01-30T10:22:24;6.93;;;4.75;;
48524;SDS011;34316;51.514;-0.178;2024-01-30T10:24:26;7.28;;;4.15;;
48524;SDS011;34316;51.514;-0.178;2024-01-30T10:26:31;6.65;;;4.15;;
48524;SDS011;34316;51.514;-0.178;2024-01-30T10:28:35;8.13;;;4.30;;
48524;SDS011;34316;51.514;-0.178;2024-01-30T10:30:38;7.32;;;4.68;;
48524;SDS011;34316;51.514;-0.178;2024-01-30T10:32:40;5.75;;;4.25;;
48524;SDS011;34316;51.514;-0.178;2024-01-30T10:34:42;5.47;;;4.55;;
48524;SDS011;34316;51.514;-0.178;2024-01-30T10:36:46;6.28;;;4.43;;
48524;SDS011;34316;51.514;-0.178;2024-01-30T10:38:51;6.47;;;4.63;;
48524;SDS011;34316;51.514;-0.178;2024-01-30T10:40:57;8.52;;;5.05;;
48524;SDS011;34316;51.514;-0.178;2024-01-30T10:43:01;7.05;;;5.03;;
48524;SDS011;34316;51.514;-0.178;2024-01-30T10:45:06;7.20;;;4.60;;
48524;SDS011;34316;51.514;-0.178;2024-01-30T10:47:15;10.60;;;4.97;;
48524;SDS011;34316;51.514;-0.178;2024-01-30T10:49:19;6.18;;;4.55;;
48524;SDS011;34316;51.514;-0.178;2024-01-30T10:51:23;9.45;;;4.80;;
48524;SDS011;34316;51.514;-0.178;2024-01-30T10:53:27;6.68;;;4.25;;
48524;SDS011;34316;51.514;-0.178;2024-01-30T10:55:32;6.28;;;4.32;;
48524;SDS011;34316;51.514;-0.178;2024-01-30T10:57:38;7.03;;;4.40;;
48524;SDS011;34316;51.514;-0.178;2024-01-30T10:59:40;7.57;;;5.40;;
48524;SDS011;34316;51.514;-0.178;2024-01-30T11:01:43;6.18;;;4.80;;
48524;SDS011;34316;51.514;-0.178;2024-01-30T11:03:45;6.35;;;4.55;;
48524;SDS011;34316;51.514;-0.178;2024-01-30T11:05:50;6.70;;;4.43;;
48524;SDS011;34316;51.514;-0.178;2024-01-30T11:07:55;5.35;;;3.78;;
48524;SDS011;34316;51.514;-0.178;2024-01-30T11:12:00;4.75;;;3.33;;
48524;SDS011;34316;51.514;-0.178;2024-01-30T11:14:02;7.10;;;4.65;;
48524;SDS011;34316;51.514;-0.178;2024-01-30T11:16:06;4.95;;;3.55;;
48524;SDS011;34316;51.514;-0.178;2024-01-30T11:18:08;5.10;;;4.05;;
48524;SDS011;34316;51.514;-0.178;2024-01-30T11:22:37;7.35;;;3.70;;
48524;SDS011;34316;51.514;-0.178;2024-01-30T11:24:39;6.47;;;3.95;;
48524;SDS011;34316;51.514;-0.178;2024-01-30T11:26:45;7.32;;;4.03;;
48524;SDS011;34316;51.514;-0.178;2024-01-30T11:28:52;5.85;;;3.97;;
48524;SDS011;34316;51.514;-0.178;2024-01-30T11:31:03;6.13;;;3.97;;
48524;SDS011;34316;51.514;-0.178;2024-01-30T11:33:14;13.05;;;4.47;;
48524;SDS011;34316;51.514;-0.178;2024-01-30T11:35:16;29.73;;;5.30;;
48524;SDS011;34316;51.514;-0.178;2024-01-30T11:37:19;5.55;;;4.43;;
48524;SDS011;34316;51.514;-0.178;2024-01-30T11:39:24;6.72;;;4.43;;
48524;SDS011;34316;51.514;-0.178;2024-01-30T11:41:27;6.90;;;4.32;;
48524;SDS011;34316;51.514;-0.178;2024-01-30T11:43:29;9.60;;;4.45;;
48524;SDS011;34316;51.514;-0.178;2024-01-30T11:45:32;7.45;;;4.28;;
48524;SDS011;34316;51.514;-0.178;2024-01-30T11:47:36;10.40;;;4.75;;
48524;SDS011;34316;51.514;-0.178;2024-01-30T11:49:43;6.65;;;4.13;;
48524;SDS011;34316;51.514;-0.178;2024-01-30T11:51:47;7.57;;;4.20;;
48524;SDS011;34316;51.514;-0.178;2024-01-30T11:53:53;9.70;;;5.75;;
48524;SDS011;34316;51.514;-0.178;2024-01-30T11:55:55;9.32;;;4.22;;
48524;SDS011;34316;51.514;-0.178;2024-01-30T11:57:57;7.57;;;4.35;;
48524;SDS011;34316;51.514;-0.178;2024-01-30T12:00:02;6.37;;;4.57;;
48524;SDS011;34316;51.514;-0.178;2024-01-30T12:02:16;6.35;;;4.05;;
48524;SDS011;34316;51.514;-0.178;2024-01-30T12:04:19;5.85;;;4.60;;
48524;SDS011;34316;51.514;-0.178;2024-01-30T12:06:20;5.05;;;3.70;;
48524;SDS011;34316;51.514;-0.178;2024-01-30T12:08:24;6.68;;;4.18;;
48524;SDS011;34316;51.514;-0.178;2024-01-30T12:10:26;7.85;;;4.45;;
48524;SDS011;34316;51.514;-0.178;2024-01-30T12:12:29;6.00;;;4.22;;
48524;SDS011;34316;51.514;-0.178;2024-01-30T12:14:31;5.40;;;4.10;;
48524;SDS011;34316;51.514;-0.178;2024-01-30T12:16:34;7.30;;;4.22;;
48524;SDS011;34316;51.514;-0.178;2024-01-30T12:18:36;8.63;;;4.50;;
48524;SDS011;34316;51.514;-0.178;2024-01-30T12:20:41;5.20;;;3.80;;
48524;SDS011;34316;51.514;-0.178;2024-01-30T12:22:44;5.85;;;4.28;;